Overview Statistics Trail Chart Weather Telemetry Raw packets
 

This is the latest recevied weather packets stored in our database for station/object F8KHU-13. If no packets are shown the sender has not sent any weather packets the latest 10 day(s).

<< 48 49 50 51 52 53 54 >>
Time Temp. Humidity Pressure Rain* Wind** Luminosity Snow
1788067545 15.56° C 40% 1011.4 hPa 0 mm - 0 W/m² -
1788066669 15.56° C 39% 1011.2 hPa 0 mm - 0 W/m² -
1788066649 15.56° C 40% 1011.2 hPa 0 mm - 0 W/m² -
1788066627 15.56° C 40% 1011.2 hPa 0 mm - 0 W/m² -
1788065769 15° C 44% 1011.1 hPa 0 mm - 0 W/m² -
1788065751 15.56° C 44% 1011.2 hPa 0 mm - 0 W/m² -
1788040564 17.78° C 60% 1009.4 hPa 0 mm - 0 W/m² -
1788040544 17.78° C 60% 1009.3 hPa 0 mm - 0 W/m² -
1788039664 17.78° C 60% 1009.2 hPa 0 mm - 0 W/m² -
1788039644 17.78° C 61% 1009.1 hPa 0 mm - 0 W/m² -
1788039624 17.78° C 61% 1009.2 hPa 0 mm - 0 W/m² -
1788038765 17.78° C 61% 1009 hPa 0 mm - 0 W/m² -
1788038744 17.78° C 61% 1009 hPa 0 mm - 0 W/m² -
1788037868 18.89° C 53% 1008.8 hPa 0 mm - 0 W/m² -
1788037845 18.89° C 53% 1008.9 hPa 0 mm - 0 W/m² -
1788037825 18.89° C 53% 1008.8 hPa 0 mm - 0 W/m² -
1788036965 18.89° C 47% 1008.7 hPa 0 mm - 0 W/m² -
1788036945 18.89° C 45% 1008.6 hPa 0 mm - 0 W/m² -
1788036065 18.89° C 44% 1008.4 hPa 0 mm - 0 W/m² -
1788036045 18.89° C 45% 1008.5 hPa 0 mm - 0 W/m² -
1788036025 18.89° C 44% 1008.4 hPa 0 mm - 0 W/m² -
1788035165 18.89° C 42% 1008.4 hPa 0 mm - 0 W/m² -
1788035145 18.89° C 43% 1008.4 hPa 0 mm - 0 W/m² -
1788035125 18.89° C 42% 1008.3 hPa 0 mm - 0 W/m² -
1788034265 18.89° C 43% 1008.2 hPa 0 mm - 0 W/m² -

* Rain latest hour (hover to see other rain measurements)
** Current wind speed in m/s (hover to see current wind gust speed)